Terminal Aerodrome Forecast
Issued by NWS St Louis, MO

Home | Current Version | Previous Version | Text Only | Print | Product List | Glossary On
Versions: 1 2 3 4 5 6 7 8 9 10 11 12 13
000
FTUS43 KLSX 111700
TAFCOU
TAF
KCOU 111720Z 1118/1218 18011KT P6SM SCT040 BKN250
     FM120100 17007KT P6SM BKN150
     FM121500 22009KT P6SM SCT150=

USA.gov is the U.S. government's official web portal to all federal, state and local government web resources and services.